createdAt,value
2023-04-08T00:03:58.510Z,8.17
2023-04-08T00:08:10.206Z,7.60
2023-04-08T00:12:21.770Z,7.40
2023-04-08T00:16:33.319Z,18.43
2023-04-08T00:20:44.834Z,7.57
2023-04-08T00:24:57.800Z,7.00
2023-04-08T00:29:09.343Z,6.87
2023-04-08T00:33:20.891Z,10.43
2023-04-08T00:37:32.782Z,7.37
2023-04-08T00:41:44.412Z,7.80
2023-04-08T00:45:56.087Z,7.37
2023-04-08T00:50:10.472Z,6.47
2023-04-08T00:54:22.191Z,5.37
2023-04-08T00:58:33.737Z,5.97
2023-04-08T01:02:53.597Z,4.30
2023-04-08T01:07:08.135Z,4.00
2023-04-08T01:11:21.407Z,4.03
2023-04-08T01:15:35.888Z,4.67
2023-04-08T01:19:49.263Z,5.03
2023-04-08T01:24:13.281Z,6.47
2023-04-08T01:28:29.264Z,6.73
2023-04-08T01:32:43.828Z,8.43
2023-04-08T01:36:58.467Z,5.43
2023-04-08T01:41:11.734Z,7.83
2023-04-08T01:45:24.111Z,8.30
2023-04-08T01:49:36.996Z,3.90
2023-04-08T01:53:48.564Z,4.60
2023-04-08T01:58:01.245Z,4.50
2023-04-08T02:02:15.409Z,4.20
2023-04-08T02:06:29.195Z,4.03
2023-04-08T02:10:40.904Z,4.37
2023-04-08T02:14:53.484Z,4.17
2023-04-08T02:19:27.934Z,4.03
2023-04-08T02:23:41.382Z,4.07
2023-04-08T02:27:54.525Z,4.00
2023-04-08T02:32:06.599Z,3.27
2023-04-08T02:36:21.387Z,4.30
2023-04-08T02:40:33.995Z,4.03
2023-04-08T02:44:48.107Z,4.47
2023-04-08T02:48:59.599Z,7.20
2023-04-08T02:53:11.097Z,5.00
2023-04-08T02:57:23.038Z,5.57
2023-04-08T03:01:34.638Z,5.30
2023-04-08T03:05:46.264Z,12.57
2023-04-08T03:09:57.984Z,4.60
2023-04-08T03:14:09.472Z,4.50
2023-04-08T03:18:21.390Z,4.63
2023-04-08T03:22:33.562Z,5.03
2023-04-08T03:26:45.086Z,4.90
2023-04-08T03:30:56.563Z,4.57
2023-04-08T03:35:08.656Z,4.07
2023-04-08T03:39:20.098Z,4.37
2023-04-08T03:43:31.572Z,5.50
2023-04-08T03:47:43.138Z,5.33
2023-04-08T03:51:54.671Z,6.17
2023-04-08T03:56:06.682Z,5.90
2023-04-08T04:00:18.195Z,5.53
2023-04-08T04:04:29.841Z,5.73
2023-04-08T04:08:41.376Z,5.23
2023-04-08T04:12:52.937Z,5.47
2023-04-08T04:17:04.393Z,5.90
2023-04-08T04:21:15.857Z,8.43
2023-04-08T04:25:27.343Z,5.73
2023-04-08T04:29:38.946Z,8.93
2023-04-08T04:33:50.559Z,7.37
2023-04-08T04:38:02.161Z,11.03
2023-04-08T04:42:13.817Z,8.03
2023-04-08T04:46:25.423Z,6.53
2023-04-08T04:50:37.033Z,7.83
2023-04-08T04:54:48.577Z,8.77
2023-04-08T04:59:00.217Z,9.70
2023-04-08T05:03:11.888Z,8.20
2023-04-08T05:07:23.506Z,8.50
2023-04-08T05:11:35.038Z,10.40
2023-04-08T05:15:46.764Z,10.00
2023-04-08T05:19:58.391Z,8.80
2023-04-08T05:24:10.051Z,10.07
2023-04-08T05:28:21.566Z,7.83
2023-04-08T05:32:33.076Z,10.80
2023-04-08T05:36:44.744Z,11.27
2023-04-08T05:40:56.260Z,10.40
2023-04-08T05:45:08.214Z,8.40
2023-04-08T05:49:19.700Z,9.70
2023-04-08T05:53:31.366Z,10.80
2023-04-08T05:57:42.874Z,10.57
2023-04-08T06:01:55.279Z,8.60
2023-04-08T06:06:11.790Z,9.53
2023-04-08T06:10:23.559Z,9.57
2023-04-08T06:14:35.205Z,7.15
2023-04-08T06:18:47.238Z,8.25
2023-04-08T06:22:59.007Z,6.15
2023-04-08T06:27:10.603Z,9.65
2023-04-08T06:31:22.198Z,7.70
2023-04-08T06:35:33.821Z,6.30
2023-04-08T06:39:45.493Z,6.68
2023-04-08T06:43:57.011Z,6.22
2023-04-08T06:48:09.466Z,5.75
2023-04-08T06:52:21.185Z,8.82
2023-04-08T06:56:32.753Z,6.78
2023-04-08T07:00:44.403Z,6.35
2023-04-08T07:04:55.994Z,6.22
2023-04-08T07:09:07.926Z,7.82
2023-04-08T07:13:19.465Z,5.95
2023-04-08T07:17:31.004Z,5.78
2023-04-08T07:21:43.717Z,6.70
2023-04-08T07:25:55.308Z,6.55
2023-04-08T07:30:07.553Z,6.68
2023-04-08T07:34:19.108Z,6.38
2023-04-08T07:38:31.662Z,4.40
2023-04-08T07:42:43.211Z,6.72
2023-04-08T07:46:54.741Z,7.70
2023-04-08T07:51:11.163Z,5.28
2023-04-08T07:55:23.178Z,5.00
2023-04-08T07:59:34.935Z,5.95
2023-04-08T08:03:48.018Z,6.45
2023-04-08T08:07:59.848Z,7.95
2023-04-08T08:12:11.672Z,7.32
2023-04-08T08:16:27.142Z,6.00
2023-04-08T08:20:38.822Z,5.20
2023-04-08T08:24:56.308Z,5.57
2023-04-08T08:29:08.877Z,5.32
2023-04-08T08:33:20.610Z,5.50
2023-04-08T08:37:32.139Z,7.25
2023-04-08T08:41:43.805Z,7.50
2023-04-08T08:45:55.421Z,5.90
2023-04-08T08:50:07.129Z,5.70
2023-04-08T08:54:18.650Z,5.05
2023-04-08T08:58:30.335Z,5.93
2023-04-08T09:02:42.638Z,4.75
2023-04-08T09:07:11.263Z,4.72
2023-04-08T09:11:22.829Z,5.20
2023-04-08T09:15:34.403Z,5.28
2023-04-08T09:20:09.598Z,5.30
2023-04-08T09:24:31.073Z,7.50
2023-04-08T09:28:43.816Z,6.57
2023-04-08T09:32:57.264Z,5.68
2023-04-08T09:37:08.786Z,5.50
2023-04-08T09:41:21.754Z,5.45
2023-04-08T09:45:34.287Z,5.68
2023-04-08T09:49:58.372Z,5.97
2023-04-08T09:54:14.807Z,5.65
2023-04-08T09:58:31.430Z,6.25
2023-04-08T10:02:59.280Z,5.45
2023-04-08T10:07:11.344Z,5.43
2023-04-08T10:11:23.464Z,6.18
2023-04-08T10:15:37.449Z,5.38
2023-04-08T10:19:49.190Z,5.43
2023-04-08T10:24:06.108Z,5.88
2023-04-08T10:28:18.090Z,5.53
2023-04-08T10:32:30.251Z,6.60
2023-04-08T10:36:41.917Z,4.95
2023-04-08T10:40:54.594Z,4.90
2023-04-08T10:45:06.832Z,4.85
2023-04-08T10:49:18.828Z,6.22
2023-04-08T10:53:39.086Z,5.50
2023-04-08T10:57:51.318Z,6.10
2023-04-08T11:02:03.280Z,6.43
2023-04-08T11:06:15.475Z,6.07
2023-04-08T11:10:28.636Z,4.93
2023-04-08T11:14:41.150Z,5.70
2023-04-08T11:18:54.036Z,5.13
2023-04-08T11:23:12.322Z,5.63
2023-04-08T11:27:25.813Z,7.05
2023-04-08T11:31:37.757Z,5.38
2023-04-08T11:35:51.664Z,6.88
2023-04-08T11:40:07.464Z,6.15
2023-04-08T11:44:19.089Z,7.28
2023-04-08T11:48:33.656Z,5.38
2023-04-08T11:52:47.588Z,5.18
2023-04-08T11:56:59.966Z,5.45
2023-04-08T12:01:11.633Z,6.03
2023-04-08T12:05:23.217Z,5.38
2023-04-08T12:09:34.794Z,5.57
2023-04-08T12:13:46.355Z,4.25
2023-04-08T12:17:58.012Z,6.82
2023-04-08T12:22:09.629Z,5.97
2023-04-08T12:26:21.236Z,7.72
2023-04-08T12:30:33.057Z,4.78
2023-04-08T12:34:44.656Z,4.38
2023-04-08T12:38:56.369Z,6.10
2023-04-08T12:43:07.927Z,4.85
2023-04-08T12:47:19.676Z,4.85
2023-04-08T12:51:32.218Z,3.78
2023-04-08T12:55:44.781Z,4.63
2023-04-08T12:59:56.643Z,4.38
2023-04-08T13:04:08.279Z,4.32
2023-04-08T13:08:19.910Z,3.95
2023-04-08T13:12:32.119Z,4.35
2023-04-08T13:16:43.867Z,3.90
2023-04-08T13:20:55.576Z,4.25
2023-04-08T13:25:07.672Z,6.25
2023-04-08T13:29:19.266Z,4.25
2023-04-08T13:33:31.226Z,5.22
2023-04-08T13:37:42.804Z,4.78
2023-04-08T13:41:54.397Z,4.63
2023-04-08T13:46:06.308Z,4.50
2023-04-08T13:50:17.870Z,6.82
2023-04-08T13:54:29.498Z,4.22
2023-04-08T13:58:41.337Z,4.63
2023-04-08T14:02:53.154Z,5.82
2023-04-08T14:07:04.856Z,5.35
2023-04-08T14:11:16.389Z,3.90
2023-04-08T14:15:27.969Z,4.10
2023-04-08T14:19:39.540Z,4.88
2023-04-08T14:23:51.088Z,5.53
2023-04-08T14:28:02.693Z,6.22
2023-04-08T14:32:14.227Z,7.45
2023-04-08T14:36:26.520Z,6.43
2023-04-08T14:40:38.090Z,5.72
2023-04-08T14:44:49.666Z,6.15
2023-04-08T14:49:01.261Z,7.78
2023-04-08T14:53:12.875Z,8.80
2023-04-08T14:57:24.416Z,7.82
2023-04-08T15:01:36.087Z,7.03
2023-04-08T15:05:48.654Z,7.18
2023-04-08T15:10:00.414Z,9.20
2023-04-08T15:14:12.044Z,8.95
2023-04-08T15:18:23.536Z,8.27
2023-04-08T15:22:35.143Z,9.40
2023-04-08T15:26:46.655Z,9.68
2023-04-08T15:30:58.210Z,10.13
2023-04-08T15:35:10.160Z,10.15
2023-04-08T15:39:21.717Z,10.15
2023-04-08T15:43:33.333Z,12.85
2023-04-08T15:47:44.977Z,10.05
2023-04-08T15:51:56.671Z,13.73
2023-04-08T15:56:16.389Z,12.13
2023-04-08T16:00:28.189Z,12.18
2023-04-08T16:04:39.799Z,10.93
2023-04-08T16:08:52.466Z,12.98
2023-04-08T16:13:04.399Z,13.07
2023-04-08T16:17:16.437Z,12.50
2023-04-08T16:21:28.837Z,12.98
2023-04-08T16:25:40.366Z,12.65
2023-04-08T16:29:51.910Z,14.45
2023-04-08T16:34:04.236Z,11.93
2023-04-08T16:38:16.448Z,12.38
2023-04-08T16:42:27.965Z,16.23
2023-04-08T16:46:39.584Z,12.05
2023-04-08T16:50:51.195Z,13.35
2023-04-08T16:55:02.885Z,13.45
2023-04-08T16:59:14.530Z,12.95
2023-04-08T17:03:27.219Z,12.45
2023-04-08T17:07:39.012Z,12.93
2023-04-08T17:11:50.686Z,12.65
2023-04-08T17:16:02.334Z,11.07
2023-04-08T17:20:13.905Z,10.75
2023-04-08T17:24:25.487Z,11.00
2023-04-08T17:28:37.084Z,9.88
2023-04-08T17:32:48.730Z,13.27
2023-04-08T17:37:00.341Z,10.77
2023-04-08T17:41:13.356Z,10.15
2023-04-08T17:45:26.177Z,10.32
2023-04-08T17:49:37.729Z,11.15
2023-04-08T17:53:49.481Z,11.27
2023-04-08T17:58:02.168Z,12.45
2023-04-08T18:02:13.827Z,15.30
2023-04-08T18:06:26.090Z,13.75
2023-04-08T18:10:38.240Z,13.52
2023-04-08T18:14:49.982Z,13.20
2023-04-08T18:19:01.534Z,12.82
2023-04-08T18:23:13.238Z,15.43
2023-04-08T18:27:24.779Z,14.75
2023-04-08T18:31:36.286Z,13.02
2023-04-08T18:35:47.887Z,12.38
2023-04-08T18:40:01.665Z,14.65
2023-04-08T18:44:13.265Z,13.38
2023-04-08T18:48:24.807Z,16.80
2023-04-08T18:52:37.395Z,15.32
2023-04-08T18:56:49.292Z,16.13
2023-04-08T19:01:00.987Z,14.65
2023-04-08T19:05:12.714Z,15.55
2023-04-08T19:09:24.317Z,16.63
2023-04-08T19:13:35.990Z,19.02
2023-04-08T19:17:47.772Z,16.58
2023-04-08T19:22:02.650Z,18.98
2023-04-08T19:26:14.426Z,16.80
2023-04-08T19:30:26.048Z,19.42
2023-04-08T19:34:38.538Z,20.08
2023-04-08T19:38:50.250Z,19.60
2023-04-08T19:43:01.831Z,23.33
2023-04-08T19:47:13.415Z,18.38
2023-04-08T19:51:25.020Z,22.70
2023-04-08T19:55:37.767Z,22.17
2023-04-08T19:59:49.625Z,22.38
2023-04-08T20:04:01.779Z,21.88
2023-04-08T20:08:13.365Z,26.88
2023-04-08T20:12:24.922Z,22.40
2023-04-08T20:16:36.478Z,26.38
2023-04-08T20:20:48.931Z,22.85
2023-04-08T20:25:00.613Z,26.33
2023-04-08T20:29:12.257Z,23.65
2023-04-08T20:33:23.747Z,24.17
2023-04-08T20:37:35.559Z,23.42
2023-04-08T20:41:47.122Z,22.98
2023-04-08T20:45:58.683Z,21.67
2023-04-08T20:50:10.625Z,19.88
2023-04-08T20:54:22.533Z,20.10
2023-04-08T20:58:34.094Z,23.05
2023-04-08T21:02:45.807Z,23.45
2023-04-08T21:06:57.438Z,19.85
2023-04-08T21:11:08.931Z,22.85
2023-04-08T21:15:20.465Z,25.58
2023-04-08T21:19:32.051Z,22.00
2023-04-08T21:23:43.535Z,20.23
2023-04-08T21:27:55.222Z,22.27
2023-04-08T21:32:07.295Z,19.00
2023-04-08T21:36:20.331Z,23.50
2023-04-08T21:40:31.876Z,25.80
2023-04-08T21:44:43.402Z,26.50
2023-04-08T21:48:54.909Z,25.10
2023-04-08T21:53:06.639Z,22.27
2023-04-08T21:57:18.802Z,23.42
2023-04-08T22:01:30.503Z,23.90
2023-04-08T22:05:42.094Z,23.23
2023-04-08T22:09:54.504Z,26.10
2023-04-08T22:14:06.007Z,25.65
2023-04-08T22:18:17.559Z,26.73
2023-04-08T22:22:29.072Z,27.63
2023-04-08T22:26:40.610Z,25.23
2023-04-08T22:30:54.995Z,27.08
2023-04-08T22:35:06.946Z,25.75
2023-04-08T22:39:18.517Z,33.03
2023-04-08T22:43:30.362Z,22.98
2023-04-08T22:47:41.955Z,24.02
2023-04-08T22:51:53.497Z,25.95
2023-04-08T22:56:05.366Z,23.23
2023-04-08T23:00:17.002Z,22.52
2023-04-08T23:04:28.662Z,22.52
2023-04-08T23:08:40.428Z,22.10
2023-04-08T23:12:52.072Z,21.42
2023-04-08T23:17:05.551Z,22.92
2023-04-08T23:21:17.256Z,23.35
2023-04-08T23:25:28.974Z,23.25
2023-04-08T23:29:40.589Z,23.40
2023-04-08T23:33:52.166Z,22.67
2023-04-08T23:38:03.723Z,22.50
2023-04-08T23:42:15.546Z,22.60
2023-04-08T23:46:27.119Z,22.75
2023-04-08T23:50:38.662Z,22.00
2023-04-08T23:54:50.701Z,23.65
2023-04-08T23:59:02.290Z,20.95
